sensor_id;sensor_type;location;lat;lon;timestamp;P1;durP1;ratioP1;P2;durP2;ratioP2
9372;SDS011;10838;52.350;9.790;2024-01-15T00:00:00;12.27;;;7.50;;
9372;SDS011;10838;52.350;9.790;2024-01-15T00:02:28;10.40;;;7.73;;
9372;SDS011;10838;52.350;9.790;2024-01-15T00:04:55;9.93;;;6.83;;
9372;SDS011;10838;52.350;9.790;2024-01-15T00:07:21;9.60;;;6.33;;
9372;SDS011;10838;52.350;9.790;2024-01-15T00:09:48;21.30;;;6.67;;
9372;SDS011;10838;52.350;9.790;2024-01-15T00:12:14;10.73;;;6.70;;
9372;SDS011;10838;52.350;9.790;2024-01-15T00:14:42;8.60;;;6.30;;
9372;SDS011;10838;52.350;9.790;2024-01-15T00:17:09;7.30;;;5.73;;
9372;SDS011;10838;52.350;9.790;2024-01-15T00:19:35;10.00;;;6.40;;
9372;SDS011;10838;52.350;9.790;2024-01-15T00:22:02;8.40;;;5.77;;
9372;SDS011;10838;52.350;9.790;2024-01-15T00:24:29;7.53;;;5.17;;
9372;SDS011;10838;52.350;9.790;2024-01-15T00:26:55;8.43;;;5.97;;
9372;SDS011;10838;52.350;9.790;2024-01-15T00:29:22;6.53;;;5.50;;
9372;SDS011;10838;52.350;9.790;2024-01-15T00:31:50;11.57;;;5.37;;
9372;SDS011;10838;52.350;9.790;2024-01-15T00:34:16;6.70;;;4.97;;
9372;SDS011;10838;52.350;9.790;2024-01-15T00:36:43;9.83;;;5.77;;
9372;SDS011;10838;52.350;9.790;2024-01-15T00:39:09;10.03;;;5.50;;
9372;SDS011;10838;52.350;9.790;2024-01-15T00:41:36;9.83;;;5.63;;
9372;SDS011;10838;52.350;9.790;2024-01-15T00:44:03;10.63;;;5.93;;
9372;SDS011;10838;52.350;9.790;2024-01-15T00:46:29;9.83;;;5.53;;
9372;SDS011;10838;52.350;9.790;2024-01-15T00:48:57;6.87;;;5.43;;
9372;SDS011;10838;52.350;9.790;2024-01-15T00:51:24;8.57;;;5.43;;
9372;SDS011;10838;52.350;9.790;2024-01-15T00:53:50;9.60;;;5.33;;
9372;SDS011;10838;52.350;9.790;2024-01-15T00:56:17;6.80;;;5.30;;
9372;SDS011;10838;52.350;9.790;2024-01-15T00:58:43;6.47;;;5.07;;
9372;SDS011;10838;52.350;9.790;2024-01-15T01:01:10;9.03;;;5.30;;
9372;SDS011;10838;52.350;9.790;2024-01-15T01:03:36;11.33;;;5.40;;
9372;SDS011;10838;52.350;9.790;2024-01-15T01:06:04;9.23;;;4.97;;
9372;SDS011;10838;52.350;9.790;2024-01-15T01:08:31;11.27;;;5.20;;
9372;SDS011;10838;52.350;9.790;2024-01-15T01:10:57;16.30;;;5.10;;
9372;SDS011;10838;52.350;9.790;2024-01-15T01:13:24;7.33;;;5.10;;
9372;SDS011;10838;52.350;9.790;2024-01-15T01:15:50;5.87;;;4.80;;
9372;SDS011;10838;52.350;9.790;2024-01-15T01:18:17;9.27;;;5.10;;
9372;SDS011;10838;52.350;9.790;2024-01-15T01:20:43;9.30;;;5.10;;
9372;SDS011;10838;52.350;9.790;2024-01-15T01:23:11;9.13;;;4.63;;
9372;SDS011;10838;52.350;9.790;2024-01-15T01:25:38;9.43;;;4.23;;
9372;SDS011;10838;52.350;9.790;2024-01-15T01:28:05;12.47;;;5.33;;
9372;SDS011;10838;52.350;9.790;2024-01-15T01:30:31;8.57;;;4.07;;
9372;SDS011;10838;52.350;9.790;2024-01-15T01:32:58;7.70;;;3.83;;
9372;SDS011;10838;52.350;9.790;2024-01-15T01:35:24;9.53;;;3.47;;
9372;SDS011;10838;52.350;9.790;2024-01-15T01:37:51;8.20;;;3.33;;
9372;SDS011;10838;52.350;9.790;2024-01-15T01:40:19;8.57;;;3.87;;
9372;SDS011;10838;52.350;9.790;2024-01-15T01:42:46;7.33;;;3.70;;
9372;SDS011;10838;52.350;9.790;2024-01-15T01:45:12;9.70;;;2.83;;
9372;SDS011;10838;52.350;9.790;2024-01-15T01:47:39;9.87;;;3.10;;
9372;SDS011;10838;52.350;9.790;2024-01-15T01:50:06;6.80;;;2.77;;
9372;SDS011;10838;52.350;9.790;2024-01-15T01:52:33;9.00;;;2.80;;
9372;SDS011;10838;52.350;9.790;2024-01-15T01:55:01;7.93;;;2.70;;
9372;SDS011;10838;52.350;9.790;2024-01-15T01:57:30;10.40;;;2.77;;
9372;SDS011;10838;52.350;9.790;2024-01-15T01:59:59;9.33;;;2.77;;
9372;SDS011;10838;52.350;9.790;2024-01-15T02:02:26;5.53;;;2.77;;
9372;SDS011;10838;52.350;9.790;2024-01-15T02:04:52;6.87;;;2.50;;
9372;SDS011;10838;52.350;9.790;2024-01-15T02:07:19;8.53;;;2.93;;
9372;SDS011;10838;52.350;9.790;2024-01-15T02:09:46;6.87;;;3.13;;
9372;SDS011;10838;52.350;9.790;2024-01-15T02:12:13;14.97;;;3.27;;
9372;SDS011;10838;52.350;9.790;2024-01-15T02:14:41;7.47;;;3.10;;
9372;SDS011;10838;52.350;9.790;2024-01-15T02:17:07;6.93;;;2.60;;
9372;SDS011;10838;52.350;9.790;2024-01-15T02:19:34;10.63;;;2.73;;
9372;SDS011;10838;52.350;9.790;2024-01-15T02:22:01;9.13;;;3.00;;
9372;SDS011;10838;52.350;9.790;2024-01-15T02:24:28;8.17;;;2.87;;
9372;SDS011;10838;52.350;9.790;2024-01-15T02:26:55;11.20;;;3.23;;
9372;SDS011;10838;52.350;9.790;2024-01-15T02:29:21;7.57;;;2.83;;
9372;SDS011;10838;52.350;9.790;2024-01-15T02:31:48;8.73;;;2.30;;
9372;SDS011;10838;52.350;9.790;2024-01-15T02:34:15;8.23;;;2.60;;
9372;SDS011;10838;52.350;9.790;2024-01-15T02:36:41;9.10;;;3.00;;
9372;SDS011;10838;52.350;9.790;2024-01-15T02:39:08;8.57;;;2.53;;
9372;SDS011;10838;52.350;9.790;2024-01-15T02:41:36;11.43;;;3.03;;
9372;SDS011;10838;52.350;9.790;2024-01-15T02:44:02;5.63;;;2.10;;
9372;SDS011;10838;52.350;9.790;2024-01-15T02:46:29;10.67;;;2.87;;
9372;SDS011;10838;52.350;9.790;2024-01-15T02:48:56;8.33;;;2.40;;
9372;SDS011;10838;52.350;9.790;2024-01-15T02:51:22;9.90;;;2.20;;
9372;SDS011;10838;52.350;9.790;2024-01-15T02:53:49;15.30;;;2.53;;
9372;SDS011;10838;52.350;9.790;2024-01-15T02:56:16;7.83;;;2.07;;
9372;SDS011;10838;52.350;9.790;2024-01-15T02:58:44;8.30;;;2.37;;
9372;SDS011;10838;52.350;9.790;2024-01-15T03:01:10;6.37;;;1.63;;
9372;SDS011;10838;52.350;9.790;2024-01-15T03:03:37;6.33;;;1.80;;
9372;SDS011;10838;52.350;9.790;2024-01-15T03:06:05;8.47;;;1.80;;
9372;SDS011;10838;52.350;9.790;2024-01-15T03:08:32;10.20;;;2.17;;
9372;SDS011;10838;52.350;9.790;2024-01-15T03:11:00;10.83;;;2.43;;
9372;SDS011;10838;52.350;9.790;2024-01-15T03:13:26;4.57;;;1.53;;
9372;SDS011;10838;52.350;9.790;2024-01-15T03:15:54;11.23;;;2.07;;
9372;SDS011;10838;52.350;9.790;2024-01-15T03:18:21;11.27;;;1.93;;
9372;SDS011;10838;52.350;9.790;2024-01-15T03:20:47;11.00;;;1.67;;
9372;SDS011;10838;52.350;9.790;2024-01-15T03:23:14;12.13;;;2.20;;
9372;SDS011;10838;52.350;9.790;2024-01-15T03:25:40;7.77;;;1.53;;
9372;SDS011;10838;52.350;9.790;2024-01-15T03:28:07;6.40;;;1.60;;
9372;SDS011;10838;52.350;9.790;2024-01-15T03:30:33;6.37;;;1.60;;
9372;SDS011;10838;52.350;9.790;2024-01-15T03:33:01;11.27;;;1.80;;
9372;SDS011;10838;52.350;9.790;2024-01-15T03:35:28;8.30;;;1.70;;
9372;SDS011;10838;52.350;9.790;2024-01-15T03:37:55;9.63;;;1.70;;
9372;SDS011;10838;52.350;9.790;2024-01-15T03:40:22;3.90;;;1.40;;
9372;SDS011;10838;52.350;9.790;2024-01-15T03:42:48;7.40;;;1.30;;
9372;SDS011;10838;52.350;9.790;2024-01-15T03:45:15;4.83;;;1.40;;
9372;SDS011;10838;52.350;9.790;2024-01-15T03:47:42;5.27;;;1.47;;
9372;SDS011;10838;52.350;9.790;2024-01-15T03:50:10;9.90;;;1.70;;
9372;SDS011;10838;52.350;9.790;2024-01-15T03:52:36;5.30;;;1.50;;
9372;SDS011;10838;52.350;9.790;2024-01-15T03:55:04;7.23;;;1.47;;
9372;SDS011;10838;52.350;9.790;2024-01-15T03:57:31;7.27;;;1.60;;
9372;SDS011;10838;52.350;9.790;2024-01-15T03:59:57;11.43;;;1.70;;
9372;SDS011;10838;52.350;9.790;2024-01-15T04:02:24;5.93;;;1.70;;
9372;SDS011;10838;52.350;9.790;2024-01-15T04:04:50;6.87;;;1.77;;
9372;SDS011;10838;52.350;9.790;2024-01-15T04:07:18;6.93;;;2.00;;
9372;SDS011;10838;52.350;9.790;2024-01-15T04:09:45;12.40;;;2.10;;
9372;SDS011;10838;52.350;9.790;2024-01-15T04:12:11;6.27;;;1.53;;
9372;SDS011;10838;52.350;9.790;2024-01-15T04:14:38;7.40;;;2.00;;
9372;SDS011;10838;52.350;9.790;2024-01-15T04:17:04;10.17;;;1.80;;
9372;SDS011;10838;52.350;9.790;2024-01-15T04:19:31;11.27;;;1.73;;
9372;SDS011;10838;52.350;9.790;2024-01-15T04:21:57;8.27;;;1.80;;
9372;SDS011;10838;52.350;9.790;2024-01-15T04:24:25;8.23;;;1.60;;
9372;SDS011;10838;52.350;9.790;2024-01-15T04:26:52;5.00;;;1.50;;
9372;SDS011;10838;52.350;9.790;2024-01-15T04:29:18;10.43;;;1.83;;
9372;SDS011;10838;52.350;9.790;2024-01-15T04:31:45;9.53;;;1.80;;
9372;SDS011;10838;52.350;9.790;2024-01-15T04:34:11;7.47;;;1.67;;
9372;SDS011;10838;52.350;9.790;2024-01-15T04:36:38;8.63;;;1.50;;
9372;SDS011;10838;52.350;9.790;2024-01-15T04:39:05;7.30;;;1.60;;
9372;SDS011;10838;52.350;9.790;2024-01-15T04:41:33;4.70;;;1.53;;
9372;SDS011;10838;52.350;9.790;2024-01-15T04:44:00;7.67;;;2.07;;
9372;SDS011;10838;52.350;9.790;2024-01-15T04:46:26;9.40;;;1.73;;
9372;SDS011;10838;52.350;9.790;2024-01-15T04:48:53;11.17;;;1.70;;
9372;SDS011;10838;52.350;9.790;2024-01-15T04:51:19;5.23;;;1.60;;
9372;SDS011;10838;52.350;9.790;2024-01-15T04:53:46;8.20;;;1.70;;
9372;SDS011;10838;52.350;9.790;2024-01-15T04:56:13;12.03;;;2.03;;
9372;SDS011;10838;52.350;9.790;2024-01-15T04:58:40;9.87;;;2.10;;
9372;SDS011;10838;52.350;9.790;2024-01-15T05:01:07;8.23;;;1.93;;
9372;SDS011;10838;52.350;9.790;2024-01-15T05:03:35;7.23;;;1.40;;
9372;SDS011;10838;52.350;9.790;2024-01-15T05:06:01;8.90;;;1.87;;
9372;SDS011;10838;52.350;9.790;2024-01-15T05:08:28;6.23;;;1.60;;
9372;SDS011;10838;52.350;9.790;2024-01-15T05:10:54;9.50;;;1.87;;
9372;SDS011;10838;52.350;9.790;2024-01-15T05:13:21;7.40;;;1.90;;
9372;SDS011;10838;52.350;9.790;2024-01-15T05:15:49;4.13;;;1.80;;
9372;SDS011;10838;52.350;9.790;2024-01-15T05:18:15;5.27;;;1.70;;
9372;SDS011;10838;52.350;9.790;2024-01-15T05:20:42;7.20;;;1.90;;
9372;SDS011;10838;52.350;9.790;2024-01-15T05:23:09;6.87;;;1.83;;
9372;SDS011;10838;52.350;9.790;2024-01-15T05:25:35;7.53;;;2.00;;
9372;SDS011;10838;52.350;9.790;2024-01-15T05:28:02;3.90;;;0.97;;
9372;SDS011;10838;52.350;9.790;2024-01-15T05:30:31;10.00;;;1.83;;
9372;SDS011;10838;52.350;9.790;2024-01-15T05:32:58;10.70;;;2.10;;
9372;SDS011;10838;52.350;9.790;2024-01-15T05:35:26;8.43;;;1.43;;
9372;SDS011;10838;52.350;9.790;2024-01-15T05:37:52;6.97;;;1.43;;
9372;SDS011;10838;52.350;9.790;2024-01-15T05:40:19;4.57;;;1.60;;
9372;SDS011;10838;52.350;9.790;2024-01-15T05:42:45;4.73;;;1.20;;
9372;SDS011;10838;52.350;9.790;2024-01-15T05:45:12;7.73;;;1.50;;
9372;SDS011;10838;52.350;9.790;2024-01-15T05:47:38;3.93;;;1.23;;
9372;SDS011;10838;52.350;9.790;2024-01-15T05:50:07;7.67;;;1.80;;
9372;SDS011;10838;52.350;9.790;2024-01-15T05:52:34;7.90;;;1.70;;
9372;SDS011;10838;52.350;9.790;2024-01-15T05:55:00;6.93;;;1.70;;
9372;SDS011;10838;52.350;9.790;2024-01-15T05:57:27;6.17;;;1.70;;
9372;SDS011;10838;52.350;9.790;2024-01-15T05:59:53;9.23;;;1.63;;
9372;SDS011;10838;52.350;9.790;2024-01-15T06:02:20;7.43;;;1.57;;
9372;SDS011;10838;52.350;9.790;2024-01-15T06:04:46;3.70;;;1.60;;
9372;SDS011;10838;52.350;9.790;2024-01-15T06:07:14;7.23;;;2.23;;
9372;SDS011;10838;52.350;9.790;2024-01-15T06:09:41;5.07;;;1.40;;
9372;SDS011;10838;52.350;9.790;2024-01-15T06:12:08;6.83;;;1.37;;
9372;SDS011;10838;52.350;9.790;2024-01-15T06:14:34;4.83;;;1.43;;
9372;SDS011;10838;52.350;9.790;2024-01-15T06:17:01;10.57;;;1.53;;
9372;SDS011;10838;52.350;9.790;2024-01-15T06:19:27;3.50;;;1.20;;
9372;SDS011;10838;52.350;9.790;2024-01-15T06:21:54;2.87;;;1.23;;
9372;SDS011;10838;52.350;9.790;2024-01-15T06:24:22;8.70;;;1.83;;
9372;SDS011;10838;52.350;9.790;2024-01-15T06:26:48;5.13;;;1.60;;
9372;SDS011;10838;52.350;9.790;2024-01-15T06:29:15;4.00;;;1.30;;
9372;SDS011;10838;52.350;9.790;2024-01-15T06:31:41;11.27;;;1.67;;
9372;SDS011;10838;52.350;9.790;2024-01-15T06:34:08;8.63;;;1.77;;
9372;SDS011;10838;52.350;9.790;2024-01-15T06:36:34;6.77;;;2.37;;
9372;SDS011;10838;52.350;9.790;2024-01-15T06:39:01;8.00;;;1.43;;
9372;SDS011;10838;52.350;9.790;2024-01-15T06:41:29;6.80;;;2.00;;
9372;SDS011;10838;52.350;9.790;2024-01-15T06:43:56;7.40;;;2.10;;
9372;SDS011;10838;52.350;9.790;2024-01-15T06:46:22;7.93;;;1.50;;
9372;SDS011;10838;52.350;9.790;2024-01-15T06:48:49;9.77;;;1.73;;
9372;SDS011;10838;52.350;9.790;2024-01-15T06:51:16;11.50;;;2.23;;
9372;SDS011;10838;52.350;9.790;2024-01-15T06:53:43;11.97;;;1.80;;
9372;SDS011;10838;52.350;9.790;2024-01-15T06:56:09;12.70;;;2.33;;
9372;SDS011;10838;52.350;9.790;2024-01-15T06:58:37;14.70;;;2.97;;
9372;SDS011;10838;52.350;9.790;2024-01-15T07:01:04;8.70;;;1.97;;
9372;SDS011;10838;52.350;9.790;2024-01-15T07:03:31;6.13;;;1.50;;
9372;SDS011;10838;52.350;9.790;2024-01-15T07:05:57;8.40;;;2.00;;
9372;SDS011;10838;52.350;9.790;2024-01-15T07:08:24;8.13;;;1.97;;
9372;SDS011;10838;52.350;9.790;2024-01-15T07:10:50;8.30;;;2.30;;
9372;SDS011;10838;52.350;9.790;2024-01-15T07:13:17;7.83;;;1.63;;
9372;SDS011;10838;52.350;9.790;2024-01-15T07:15:45;8.57;;;1.73;;
9372;SDS011;10838;52.350;9.790;2024-01-15T07:18:11;3.30;;;1.67;;
9372;SDS011;10838;52.350;9.790;2024-01-15T07:20:38;7.73;;;1.67;;
9372;SDS011;10838;52.350;9.790;2024-01-15T07:23:04;6.27;;;2.50;;
9372;SDS011;10838;52.350;9.790;2024-01-15T07:25:31;3.90;;;1.50;;
9372;SDS011;10838;52.350;9.790;2024-01-15T07:27:58;7.37;;;2.13;;
9372;SDS011;10838;52.350;9.790;2024-01-15T07:30:25;4.73;;;1.90;;
9372;SDS011;10838;52.350;9.790;2024-01-15T07:32:53;5.33;;;2.00;;
9372;SDS011;10838;52.350;9.790;2024-01-15T07:35:19;5.83;;;2.00;;
9372;SDS011;10838;52.350;9.790;2024-01-15T07:37:47;6.63;;;2.27;;
9372;SDS011;10838;52.350;9.790;2024-01-15T07:40:13;5.73;;;2.10;;
9372;SDS011;10838;52.350;9.790;2024-01-15T07:42:40;3.70;;;1.73;;
9372;SDS011;10838;52.350;9.790;2024-01-15T07:45:07;6.60;;;2.17;;
9372;SDS011;10838;52.350;9.790;2024-01-15T07:47:34;8.97;;;2.33;;
9372;SDS011;10838;52.350;9.790;2024-01-15T07:50:02;7.63;;;2.03;;
9372;SDS011;10838;52.350;9.790;2024-01-15T07:52:29;9.23;;;2.00;;
9372;SDS011;10838;52.350;9.790;2024-01-15T07:54:56;9.80;;;2.40;;
9372;SDS011;10838;52.350;9.790;2024-01-15T07:57:24;7.50;;;2.10;;
9372;SDS011;10838;52.350;9.790;2024-01-15T07:59:51;4.83;;;2.10;;
9372;SDS011;10838;52.350;9.790;2024-01-15T08:02:17;9.93;;;1.80;;
9372;SDS011;10838;52.350;9.790;2024-01-15T08:04:44;10.93;;;3.13;;
9372;SDS011;10838;52.350;9.790;2024-01-15T08:07:12;4.90;;;2.20;;
9372;SDS011;10838;52.350;9.790;2024-01-15T08:09:39;8.17;;;1.57;;
9372;SDS011;10838;52.350;9.790;2024-01-15T08:12:06;7.87;;;2.23;;
9372;SDS011;10838;52.350;9.790;2024-01-15T08:14:35;5.00;;;2.03;;
9372;SDS011;10838;52.350;9.790;2024-01-15T08:17:01;3.43;;;2.00;;
9372;SDS011;10838;52.350;9.790;2024-01-15T08:19:28;5.70;;;1.90;;
9372;SDS011;10838;52.350;9.790;2024-01-15T08:21:54;4.73;;;1.90;;
9372;SDS011;10838;52.350;9.790;2024-01-15T08:24:22;6.03;;;2.00;;
9372;SDS011;10838;52.350;9.790;2024-01-15T08:26:49;5.93;;;2.43;;
9372;SDS011;10838;52.350;9.790;2024-01-15T08:29:15;6.30;;;1.97;;
9372;SDS011;10838;52.350;9.790;2024-01-15T08:31:43;4.97;;;2.07;;
9372;SDS011;10838;52.350;9.790;2024-01-15T08:34:10;5.30;;;1.70;;
9372;SDS011;10838;52.350;9.790;2024-01-15T08:36:36;2.13;;;1.63;;
9372;SDS011;10838;52.350;9.790;2024-01-15T08:39:03;6.87;;;1.83;;
9372;SDS011;10838;52.350;9.790;2024-01-15T08:41:32;6.20;;;2.10;;
9372;SDS011;10838;52.350;9.790;2024-01-15T08:43:59;9.90;;;2.00;;
9372;SDS011;10838;52.350;9.790;2024-01-15T08:46:26;3.60;;;1.97;;
9372;SDS011;10838;52.350;9.790;2024-01-15T08:48:52;3.87;;;1.73;;
9372;SDS011;10838;52.350;9.790;2024-01-15T08:51:19;4.63;;;1.83;;
9372;SDS011;10838;52.350;9.790;2024-01-15T08:53:45;8.97;;;2.00;;
9372;SDS011;10838;52.350;9.790;2024-01-15T08:56:12;9.47;;;1.83;;
9372;SDS011;10838;52.350;9.790;2024-01-15T08:58:40;4.27;;;1.70;;
9372;SDS011;10838;52.350;9.790;2024-01-15T09:01:06;6.10;;;1.80;;
9372;SDS011;10838;52.350;9.790;2024-01-15T09:03:34;4.97;;;2.00;;
9372;SDS011;10838;52.350;9.790;2024-01-15T09:06:01;4.27;;;1.43;;
9372;SDS011;10838;52.350;9.790;2024-01-15T09:08:28;5.17;;;2.00;;
9372;SDS011;10838;52.350;9.790;2024-01-15T09:10:55;7.13;;;2.00;;
9372;SDS011;10838;52.350;9.790;2024-01-15T09:13:21;5.00;;;1.60;;
9372;SDS011;10838;52.350;9.790;2024-01-15T09:15:49;2.50;;;1.50;;
9372;SDS011;10838;52.350;9.790;2024-01-15T09:18:16;7.03;;;2.00;;
9372;SDS011;10838;52.350;9.790;2024-01-15T09:20:42;3.33;;;2.00;;
9372;SDS011;10838;52.350;9.790;2024-01-15T09:23:09;4.57;;;2.33;;
9372;SDS011;10838;52.350;9.790;2024-01-15T09:25:35;7.77;;;1.80;;
9372;SDS011;10838;52.350;9.790;2024-01-15T09:28:02;5.00;;;2.20;;
9372;SDS011;10838;52.350;9.790;2024-01-15T09:30:28;5.57;;;1.60;;
9372;SDS011;10838;52.350;9.790;2024-01-15T09:32:56;5.60;;;1.93;;
9372;SDS011;10838;52.350;9.790;2024-01-15T09:35:23;7.57;;;1.80;;
9372;SDS011;10838;52.350;9.790;2024-01-15T09:37:50;6.33;;;1.80;;
9372;SDS011;10838;52.350;9.790;2024-01-15T09:40:16;13.33;;;6.83;;
9372;SDS011;10838;52.350;9.790;2024-01-15T09:42:46;6.53;;;1.90;;
9372;SDS011;10838;52.350;9.790;2024-01-15T09:45:13;9.53;;;1.93;;
9372;SDS011;10838;52.350;9.790;2024-01-15T09:47:40;5.57;;;1.87;;
9372;SDS011;10838;52.350;9.790;2024-01-15T09:50:09;3.07;;;1.60;;
9372;SDS011;10838;52.350;9.790;2024-01-15T09:52:36;6.73;;;2.07;;
9372;SDS011;10838;52.350;9.790;2024-01-15T09:55:03;6.53;;;1.73;;
9372;SDS011;10838;52.350;9.790;2024-01-15T09:57:31;5.63;;;1.90;;
9372;SDS011;10838;52.350;9.790;2024-01-15T09:59:58;3.00;;;1.83;;
9372;SDS011;10838;52.350;9.790;2024-01-15T10:02:28;5.03;;;1.70;;
9372;SDS011;10838;52.350;9.790;2024-01-15T10:04:55;8.07;;;2.23;;
9372;SDS011;10838;52.350;9.790;2024-01-15T10:07:23;8.33;;;1.73;;
9372;SDS011;10838;52.350;9.790;2024-01-15T10:09:53;9.17;;;2.30;;
9372;SDS011;10838;52.350;9.790;2024-01-15T10:12:19;2.43;;;1.57;;
9372;SDS011;10838;52.350;9.790;2024-01-15T10:14:47;2.60;;;1.23;;
9372;SDS011;10838;52.350;9.790;2024-01-15T10:17:14;3.10;;;1.47;;
9372;SDS011;10838;52.350;9.790;2024-01-15T10:19:42;4.27;;;1.67;;
9372;SDS011;10838;52.350;9.790;2024-01-15T10:22:08;4.70;;;1.50;;
9372;SDS011;10838;52.350;9.790;2024-01-15T10:24:37;3.30;;;1.43;;
9372;SDS011;10838;52.350;9.790;2024-01-15T10:27:07;3.03;;;1.30;;
9372;SDS011;10838;52.350;9.790;2024-01-15T10:29:34;4.53;;;1.70;;
9372;SDS011;10838;52.350;9.790;2024-01-15T10:32:00;1.40;;;1.30;;
9372;SDS011;10838;52.350;9.790;2024-01-15T10:34:27;3.77;;;1.70;;
9372;SDS011;10838;52.350;9.790;2024-01-15T10:36:56;6.60;;;1.63;;
9372;SDS011;10838;52.350;9.790;2024-01-15T10:39:23;2.57;;;1.50;;
9372;SDS011;10838;52.350;9.790;2024-01-15T10:41:51;2.67;;;1.50;;
9372;SDS011;10838;52.350;9.790;2024-01-15T10:44:17;6.30;;;1.80;;
9372;SDS011;10838;52.350;9.790;2024-01-15T10:46:44;3.73;;;1.80;;
9372;SDS011;10838;52.350;9.790;2024-01-15T10:49:12;5.67;;;1.73;;
9372;SDS011;10838;52.350;9.790;2024-01-15T10:51:39;3.60;;;1.50;;
9372;SDS011;10838;52.350;9.790;2024-01-15T10:54:06;3.73;;;1.63;;
9372;SDS011;10838;52.350;9.790;2024-01-15T10:56:36;3.60;;;1.87;;
9372;SDS011;10838;52.350;9.790;2024-01-15T10:59:06;2.87;;;1.17;;
9372;SDS011;10838;52.350;9.790;2024-01-15T11:01:35;3.13;;;1.40;;
9372;SDS011;10838;52.350;9.790;2024-01-15T11:04:03;7.43;;;1.40;;
9372;SDS011;10838;52.350;9.790;2024-01-15T11:06:41;4.03;;;1.30;;
9372;SDS011;10838;52.350;9.790;2024-01-15T11:09:08;5.90;;;1.90;;
9372;SDS011;10838;52.350;9.790;2024-01-15T11:11:35;6.13;;;1.23;;
9372;SDS011;10838;52.350;9.790;2024-01-15T11:14:02;6.07;;;1.43;;
9372;SDS011;10838;52.350;9.790;2024-01-15T11:16:52;9.17;;;1.63;;
9372;SDS011;10838;52.350;9.790;2024-01-15T11:19:21;6.73;;;1.20;;
9372;SDS011;10838;52.350;9.790;2024-01-15T11:21:47;4.97;;;1.50;;
9372;SDS011;10838;52.350;9.790;2024-01-15T11:27:02;7.33;;;1.63;;
9372;SDS011;10838;52.350;9.790;2024-01-15T11:29:29;4.77;;;1.50;;
9372;SDS011;10838;52.350;9.790;2024-01-15T11:31:59;4.83;;;1.70;;
9372;SDS011;10838;52.350;9.790;2024-01-15T11:37:23;3.90;;;1.50;;
9372;SDS011;10838;52.350;9.790;2024-01-15T11:39:51;5.10;;;1.60;;
9372;SDS011;10838;52.350;9.790;2024-01-15T11:42:19;6.03;;;1.60;;
9372;SDS011;10838;52.350;9.790;2024-01-15T11:44:46;6.30;;;1.77;;
9372;SDS011;10838;52.350;9.790;2024-01-15T11:47:14;4.23;;;1.60;;
9372;SDS011;10838;52.350;9.790;2024-01-15T11:50:00;3.43;;;1.53;;
9372;SDS011;10838;52.350;9.790;2024-01-15T11:52:31;4.80;;;1.80;;
9372;SDS011;10838;52.350;9.790;2024-01-15T11:55:01;6.60;;;1.60;;
9372;SDS011;10838;52.350;9.790;2024-01-15T11:57:40;6.27;;;2.23;;
9372;SDS011;10838;52.350;9.790;2024-01-15T12:00:08;6.27;;;2.07;;
9372;SDS011;10838;52.350;9.790;2024-01-15T12:02:37;3.30;;;1.60;;
9372;SDS011;10838;52.350;9.790;2024-01-15T12:05:05;7.23;;;2.13;;
9372;SDS011;10838;52.350;9.790;2024-01-15T12:07:32;3.30;;;1.80;;
9372;SDS011;10838;52.350;9.790;2024-01-15T12:09:59;5.43;;;1.80;;
9372;SDS011;10838;52.350;9.790;2024-01-15T12:12:27;6.10;;;1.80;;
9372;SDS011;10838;52.350;9.790;2024-01-15T12:15:02;4.77;;;1.83;;
9372;SDS011;10838;52.350;9.790;2024-01-15T12:17:30;7.50;;;2.17;;
9372;SDS011;10838;52.350;9.790;2024-01-15T12:19:58;6.77;;;2.10;;
9372;SDS011;10838;52.350;9.790;2024-01-15T12:22:24;3.53;;;1.70;;
9372;SDS011;10838;52.350;9.790;2024-01-15T12:24:52;5.00;;;2.13;;
9372;SDS011;10838;52.350;9.790;2024-01-15T12:27:19;8.97;;;1.80;;
9372;SDS011;10838;52.350;9.790;2024-01-15T12:29:46;5.90;;;1.90;;
9372;SDS011;10838;52.350;9.790;2024-01-15T12:32:12;8.57;;;2.10;;
9372;SDS011;10838;52.350;9.790;2024-01-15T12:34:39;3.43;;;1.53;;
9372;SDS011;10838;52.350;9.790;2024-01-15T12:37:07;4.13;;;1.67;;
9372;SDS011;10838;52.350;9.790;2024-01-15T12:39:34;5.07;;;1.90;;
9372;SDS011;10838;52.350;9.790;2024-01-15T12:42:01;5.27;;;1.70;;
9372;SDS011;10838;52.350;9.790;2024-01-15T12:44:28;8.77;;;1.90;;
9372;SDS011;10838;52.350;9.790;2024-01-15T12:46:55;5.63;;;1.70;;
9372;SDS011;10838;52.350;9.790;2024-01-15T12:49:23;7.20;;;2.20;;
9372;SDS011;10838;52.350;9.790;2024-01-15T12:51:53;3.67;;;1.80;;
9372;SDS011;10838;52.350;9.790;2024-01-15T12:54:21;8.03;;;1.90;;
9372;SDS011;10838;52.350;9.790;2024-01-15T12:56:48;10.03;;;1.90;;
9372;SDS011;10838;52.350;9.790;2024-01-15T12:59:15;6.63;;;1.63;;
9372;SDS011;10838;52.350;9.790;2024-01-15T13:01:42;9.50;;;2.30;;
9372;SDS011;10838;52.350;9.790;2024-01-15T13:04:09;6.83;;;1.53;;
9372;SDS011;10838;52.350;9.790;2024-01-15T13:06:35;6.97;;;1.67;;
9372;SDS011;10838;52.350;9.790;2024-01-15T13:09:02;6.07;;;1.67;;
9372;SDS011;10838;52.350;9.790;2024-01-15T13:11:31;5.80;;;1.73;;
9372;SDS011;10838;52.350;9.790;2024-01-15T13:13:58;6.50;;;1.83;;
9372;SDS011;10838;52.350;9.790;2024-01-15T13:16:25;6.80;;;2.57;;
9372;SDS011;10838;52.350;9.790;2024-01-15T13:18:54;5.97;;;2.47;;
9372;SDS011;10838;52.350;9.790;2024-01-15T13:21:20;8.13;;;1.50;;
9372;SDS011;10838;52.350;9.790;2024-01-15T13:23:47;5.83;;;1.60;;
9372;SDS011;10838;52.350;9.790;2024-01-15T13:26:13;5.73;;;1.70;;
9372;SDS011;10838;52.350;9.790;2024-01-15T13:28:41;10.60;;;3.10;;
9372;SDS011;10838;52.350;9.790;2024-01-15T13:31:08;9.73;;;3.67;;
9372;SDS011;10838;52.350;9.790;2024-01-15T13:33:34;5.13;;;1.50;;
9372;SDS011;10838;52.350;9.790;2024-01-15T13:36:01;4.73;;;1.50;;
9372;SDS011;10838;52.350;9.790;2024-01-15T13:38:28;4.43;;;1.50;;
9372;SDS011;10838;52.350;9.790;2024-01-15T13:41:00;5.97;;;1.50;;
9372;SDS011;10838;52.350;9.790;2024-01-15T13:43:27;5.87;;;1.40;;
9372;SDS011;10838;52.350;9.790;2024-01-15T13:45:55;6.03;;;1.40;;
9372;SDS011;10838;52.350;9.790;2024-01-15T13:48:22;5.87;;;1.60;;
9372;SDS011;10838;52.350;9.790;2024-01-15T13:50:48;7.73;;;1.93;;
9372;SDS011;10838;52.350;9.790;2024-01-15T13:53:15;5.60;;;1.50;;
9372;SDS011;10838;52.350;9.790;2024-01-15T13:55:42;4.90;;;1.63;;
9372;SDS011;10838;52.350;9.790;2024-01-15T13:58:08;5.50;;;1.63;;
9372;SDS011;10838;52.350;9.790;2024-01-15T14:00:35;6.03;;;1.63;;
9372;SDS011;10838;52.350;9.790;2024-01-15T14:03:03;4.70;;;1.80;;
9372;SDS011;10838;52.350;9.790;2024-01-15T14:05:30;5.87;;;1.60;;
9372;SDS011;10838;52.350;9.790;2024-01-15T14:07:56;4.80;;;1.60;;
9372;SDS011;10838;52.350;9.790;2024-01-15T14:10:23;7.63;;;1.83;;
9372;SDS011;10838;52.350;9.790;2024-01-15T14:12:50;5.67;;;1.60;;
9372;SDS011;10838;52.350;9.790;2024-01-15T14:15:16;5.27;;;2.17;;
9372;SDS011;10838;52.350;9.790;2024-01-15T14:17:46;5.70;;;1.50;;
9372;SDS011;10838;52.350;9.790;2024-01-15T14:20:13;5.67;;;1.90;;
9372;SDS011;10838;52.350;9.790;2024-01-15T14:22:40;8.63;;;2.00;;
9372;SDS011;10838;52.350;9.790;2024-01-15T14:25:07;6.23;;;1.83;;
9372;SDS011;10838;52.350;9.790;2024-01-15T14:27:34;6.83;;;1.93;;
9372;SDS011;10838;52.350;9.790;2024-01-15T14:30:01;4.70;;;1.70;;
9372;SDS011;10838;52.350;9.790;2024-01-15T14:32:28;8.90;;;1.87;;
9372;SDS011;10838;52.350;9.790;2024-01-15T14:34:55;4.43;;;1.87;;
9372;SDS011;10838;52.350;9.790;2024-01-15T14:37:23;5.47;;;2.17;;
9372;SDS011;10838;52.350;9.790;2024-01-15T14:39:50;8.60;;;2.00;;
9372;SDS011;10838;52.350;9.790;2024-01-15T14:42:17;10.13;;;2.40;;
9372;SDS011;10838;52.350;9.790;2024-01-15T14:44:43;7.23;;;2.13;;
9372;SDS011;10838;52.350;9.790;2024-01-15T14:47:10;4.97;;;1.90;;
9372;SDS011;10838;52.350;9.790;2024-01-15T14:49:36;2.77;;;1.77;;
9372;SDS011;10838;52.350;9.790;2024-01-15T14:52:03;8.23;;;2.50;;
9372;SDS011;10838;52.350;9.790;2024-01-15T14:54:32;7.83;;;2.60;;
9372;SDS011;10838;52.350;9.790;2024-01-15T14:56:59;10.03;;;2.20;;
9372;SDS011;10838;52.350;9.790;2024-01-15T14:59:26;11.40;;;2.30;;
9372;SDS011;10838;52.350;9.790;2024-01-15T15:01:53;6.43;;;2.00;;
9372;SDS011;10838;52.350;9.790;2024-01-15T15:04:21;7.40;;;1.80;;